Time,TemperatureF,DewpointF,PressureIn,WindDirection,WindDirectionDegrees,WindSpeedMPH,WindSpeedGustMPH,Humidity,HourlyPrecipIn,Conditions,Clouds,dailyrainin,SoftwareType,DateUTC
2013-10-09 00:01:00,46.0,27.4,29.61,NW,316,0.0,2.0,48,0.00,,,0.00,WeatherTracker,2013-10-09 07:01:00,
2013-10-09 00:06:00,46.0,28.4,29.62,NW,317,0.0,0.0,50,0.00,,,0.00,WeatherTracker,2013-10-09 07:06:00,
2013-10-09 00:11:00,45.5,28.0,29.62,South,184,3.0,6.0,50,0.00,,,0.00,WeatherTracker,2013-10-09 07:11:00,
2013-10-09 00:16:00,45.8,27.7,29.61,South,184,0.0,6.0,49,0.00,,,0.00,WeatherTracker,2013-10-09 07:16:00,
2013-10-09 00:21:00,45.9,27.3,29.61,South,184,0.0,5.0,48,0.00,,,0.00,WeatherTracker,2013-10-09 07:21:00,
2013-10-09 00:26:00,46.3,26.7,29.61,South,184,0.0,0.0,46,0.00,,,0.00,WeatherTracker,2013-10-09 07:26:00,
2013-10-09 00:31:00,46.4,28.3,29.61,South,184,0.0,0.0,49,0.00,,,0.00,WeatherTracker,2013-10-09 07:31:00,
2013-10-09 00:36:00,46.5,26.8,29.61,South,191,2.0,3.0,46,0.00,,,0.00,WeatherTracker,2013-10-09 07:36:00,
2013-10-09 00:41:00,47.4,26.6,29.61,SW,215,3.0,4.0,44,0.00,,,0.00,WeatherTracker,2013-10-09 07:41:00,
2013-10-09 00:46:00,48.5,27.0,29.61,WSW,254,2.0,4.0,43,0.00,,,0.00,WeatherTracker,2013-10-09 07:46:00,
2013-10-09 00:51:00,48.1,27.2,29.60,NNW,331,5.0,5.0,44,0.00,,,0.00,WeatherTracker,2013-10-09 07:51:00,
2013-10-09 00:56:00,48.1,26.7,29.60,NW,319,0.0,7.0,43,0.00,,,0.00,WeatherTracker,2013-10-09 07:56:00,
2013-10-09 01:02:00,47.5,27.2,29.60,WNW,289,0.0,7.0,45,0.00,,,0.00,WeatherTracker,2013-10-09 08:02:00,
2013-10-09 01:07:00,47.0,27.3,29.60,WNW,289,0.0,6.0,46,0.00,,,0.00,WeatherTracker,2013-10-09 08:07:00,
2013-10-09 01:12:00,46.8,27.1,29.60,WNW,289,0.0,2.0,46,0.00,,,0.00,WeatherTracker,2013-10-09 08:12:00,
2013-10-09 01:17:00,46.5,26.8,29.60,WNW,289,0.0,3.0,46,0.00,,,0.00,WeatherTracker,2013-10-09 08:17:00,
2013-10-09 01:22:00,46.7,26.5,29.60,WNW,289,1.0,4.0,45,0.00,,,0.00,WeatherTracker,2013-10-09 08:22:00,
2013-10-09 01:27:00,47.0,26.2,29.59,WNW,289,0.0,4.0,44,0.00,,,0.00,WeatherTracker,2013-10-09 08:27:00,
2013-10-09 01:32:00,47.3,26.5,29.59,WNW,289,0.0,3.0,44,0.00,,,0.00,WeatherTracker,2013-10-09 08:32:00,
2013-10-09 01:37:00,47.0,27.3,29.59,SW,219,3.0,3.0,46,0.00,,,0.00,WeatherTracker,2013-10-09 08:37:00,
2013-10-09 01:42:00,46.0,26.9,29.59,SW,215,0.0,5.0,47,0.00,,,0.00,WeatherTracker,2013-10-09 08:42:00,
2013-10-09 01:47:00,45.8,26.7,29.59,SW,215,0.0,5.0,47,0.00,,,0.00,WeatherTracker,2013-10-09 08:47:00,
2013-10-09 01:52:00,45.6,27.6,29.59,SW,215,0.0,4.0,49,0.00,,,0.00,WeatherTracker,2013-10-09 08:52:00,
2013-10-09 01:57:00,44.7,27.2,29.59,SW,215,0.0,3.0,50,0.00,,,0.00,WeatherTracker,2013-10-09 08:57:00,
2013-10-09 02:02:00,44.7,27.2,29.59,SW,215,2.0,3.0,50,0.00,,,0.00,WeatherTracker,2013-10-09 09:02:00,
2013-10-09 02:07:00,44.6,27.6,29.59,SW,215,0.0,3.0,51,0.00,,,0.00,WeatherTracker,2013-10-09 09:07:00,
2013-10-09 02:12:00,44.3,27.3,29.59,SW,215,0.0,3.0,51,0.00,,,0.00,WeatherTracker,2013-10-09 09:12:00,
2013-10-09 02:17:00,44.1,28.5,29.59,SW,215,0.0,3.0,54,0.00,,,0.00,WeatherTracker,2013-10-09 09:17:00,
2013-10-09 02:22:00,44.0,27.5,29.58,SW,215,0.0,0.0,52,0.00,,,0.00,WeatherTracker,2013-10-09 09:22:00,
2013-10-09 02:27:00,43.8,28.3,29.58,South,176,1.0,0.0,54,0.00,,,0.00,WeatherTracker,2013-10-09 09:27:00,
2013-10-09 02:32:00,43.4,27.9,29.58,South,176,1.0,9.0,54,0.00,,,0.00,WeatherTracker,2013-10-09 09:32:00,
2013-10-09 02:37:00,43.3,27.8,29.57,South,176,0.0,9.0,54,0.00,,,0.00,WeatherTracker,2013-10-09 09:37:00,
2013-10-09 02:42:00,43.1,28.5,29.57,South,176,0.0,3.0,56,0.00,,,0.00,WeatherTracker,2013-10-09 09:42:00,
2013-10-09 02:47:00,43.1,27.1,29.57,South,176,0.0,0.0,53,0.00,,,0.00,WeatherTracker,2013-10-09 09:47:00,
2013-10-09 02:53:00,43.3,27.8,29.57,WSW,239,4.0,0.0,54,0.00,,,0.00,WeatherTracker,2013-10-09 09:53:00,
2013-10-09 02:58:00,42.9,27.4,29.57,West,276,0.0,5.0,54,0.00,,,0.00,WeatherTracker,2013-10-09 09:58:00,
2013-10-09 03:03:00,42.6,27.6,29.57,West,276,0.0,5.0,55,0.00,,,0.00,WeatherTracker,2013-10-09 10:03:00,
2013-10-09 03:08:00,42.7,27.7,29.56,West,276,0.0,3.0,55,0.00,,,0.00,WeatherTracker,2013-10-09 10:08:00,
2013-10-09 03:13:00,42.8,27.8,29.56,West,276,0.0,0.0,55,0.00,,,0.00,WeatherTracker,2013-10-09 10:13:00,
2013-10-09 03:18:00,42.7,27.7,29.56,West,276,0.0,2.0,55,0.00,,,0.00,WeatherTracker,2013-10-09 10:18:00,
2013-10-09 03:23:00,42.6,27.6,29.55,West,276,3.0,3.0,55,0.00,,,0.00,WeatherTracker,2013-10-09 10:23:00,
2013-10-09 03:28:00,42.8,27.3,29.55,NW,315,3.0,4.0,54,0.00,,,0.00,WeatherTracker,2013-10-09 10:28:00,
2013-10-09 03:33:00,43.0,27.5,29.55,NW,311,3.0,7.0,54,0.00,,,0.00,WeatherTracker,2013-10-09 10:33:00,
2013-10-09 03:38:00,43.2,26.8,29.55,NW,314,4.0,7.0,52,0.00,,,0.00,WeatherTracker,2013-10-09 10:38:00,
2013-10-09 03:43:00,43.8,27.3,29.55,NW,314,0.0,5.0,52,0.00,,,0.00,WeatherTracker,2013-10-09 10:43:00,
2013-10-09 03:48:00,43.7,27.7,29.54,NW,312,0.0,4.0,53,0.00,,,0.00,WeatherTracker,2013-10-09 10:48:00,
2013-10-09 03:53:00,43.9,27.0,29.54,NW,313,2.0,3.0,51,0.00,,,0.00,WeatherTracker,2013-10-09 10:53:00,
2013-10-09 03:58:00,44.5,27.0,29.54,NNW,345,3.0,4.0,50,0.00,,,0.00,WeatherTracker,2013-10-09 10:58:00,
2013-10-09 04:03:00,45.0,26.5,29.54,NNW,338,2.0,4.0,48,0.00,,,0.00,WeatherTracker,2013-10-09 11:03:00,
2013-10-09 04:08:00,45.3,27.3,29.55,WSW,246,1.0,5.0,49,0.00,,,0.00,WeatherTracker,2013-10-09 11:08:00,
2013-10-09 04:13:00,46.1,26.5,29.55,WNW,303,4.0,5.0,46,0.00,,,0.00,WeatherTracker,2013-10-09 11:13:00,
2013-10-09 04:18:00,47.6,25.7,29.54,NE,49,2.0,12.0,42,0.00,,,0.00,WeatherTracker,2013-10-09 11:18:00,
2013-10-09 04:23:00,48.4,25.8,29.53,North,357,5.0,13.0,41,0.00,,,0.00,WeatherTracker,2013-10-09 11:23:00,
2013-10-09 04:28:00,48.8,25.6,29.53,NW,325,2.0,13.0,40,0.00,,,0.00,WeatherTracker,2013-10-09 11:28:00,
2013-10-09 04:33:00,48.7,25.5,29.53,North,358,4.0,11.0,40,0.00,,,0.00,WeatherTracker,2013-10-09 11:33:00,
2013-10-09 04:39:00,48.3,25.7,29.53,NNW,337,4.0,12.0,41,0.00,,,0.00,WeatherTracker,2013-10-09 11:39:00,
2013-10-09 04:44:00,47.6,25.7,29.53,NNW,329,9.0,12.0,42,0.00,,,0.00,WeatherTracker,2013-10-09 11:44:00,
2013-10-09 04:49:00,47.3,25.4,29.53,NW,320,6.0,10.0,42,0.00,,,0.00,WeatherTracker,2013-10-09 11:49:00,
2013-10-09 04:54:00,47.4,24.9,29.53,North,356,4.0,12.0,41,0.00,,,0.00,WeatherTracker,2013-10-09 11:54:00,
2013-10-09 04:59:00,47.4,25.5,29.53,NW,316,2.0,14.0,42,0.00,,,0.00,WeatherTracker,2013-10-09 11:59:00,
2013-10-09 05:04:00,47.0,25.7,29.54,WNW,292,3.0,14.0,43,0.00,,,0.00,WeatherTracker,2013-10-09 12:04:00,
2013-10-09 05:05:00,46.9,25.6,29.53,WNW,285,5.0,12.0,43,0.00,,,0.00,WeatherTracker,2013-10-09 12:05:00,
2013-10-09 05:09:00,46.7,26.0,29.54,NW,306,2.0,12.0,44,0.00,,,0.00,WeatherTracker,2013-10-09 12:09:00,
2013-10-09 05:14:00,46.4,25.7,29.54,NW,309,0.0,6.0,44,0.00,,,0.00,WeatherTracker,2013-10-09 12:14:00,
2013-10-09 05:19:00,46.2,25.5,29.54,NW,308,0.0,6.0,44,0.00,,,0.00,WeatherTracker,2013-10-09 12:19:00,
2013-10-09 05:24:00,45.9,25.8,29.54,NW,308,0.0,5.0,45,0.00,,,0.00,WeatherTracker,2013-10-09 12:24:00,
2013-10-09 05:29:00,45.9,25.8,29.54,NW,308,2.0,2.0,45,0.00,,,0.00,WeatherTracker,2013-10-09 12:29:00,
2013-10-09 05:34:00,45.8,25.7,29.54,NNW,332,3.0,3.0,45,0.00,,,0.00,WeatherTracker,2013-10-09 12:34:00,
2013-10-09 05:39:00,46.0,25.9,29.53,NW,325,3.0,5.0,45,0.00,,,0.00,WeatherTracker,2013-10-09 12:39:00,
2013-10-09 05:44:00,46.4,27.3,29.53,NNW,345,4.0,6.0,47,0.00,,,0.00,WeatherTracker,2013-10-09 12:44:00,
2013-10-09 05:49:00,46.4,27.3,29.54,NNW,345,2.0,7.0,47,0.00,,,0.00,WeatherTracker,2013-10-09 12:49:00,
2013-10-09 05:54:00,46.5,27.4,29.54,NNW,338,4.0,7.0,47,0.00,,,0.00,WeatherTracker,2013-10-09 12:54:00,
2013-10-09 05:59:00,46.5,27.9,29.54,NNW,338,3.0,7.0,48,0.00,,,0.00,WeatherTracker,2013-10-09 12:59:00,
2013-10-09 06:04:00,46.1,28.5,29.54,NNW,340,3.0,7.0,50,0.00,,,0.00,WeatherTracker,2013-10-09 13:04:00,
2013-10-09 06:09:00,45.9,28.8,29.54,NW,325,10.0,11.0,51,0.00,,,0.00,WeatherTracker,2013-10-09 13:09:00,
2013-10-09 06:14:00,45.8,28.7,29.55,NNW,342,6.0,11.0,51,0.00,,,0.00,WeatherTracker,2013-10-09 13:14:00,
2013-10-09 06:19:00,45.8,29.2,29.55,NNW,332,10.0,12.0,52,0.00,,,0.00,WeatherTracker,2013-10-09 13:19:00,
2013-10-09 06:25:00,45.6,29.0,29.55,NNW,334,12.0,15.0,52,0.00,,,0.00,WeatherTracker,2013-10-09 13:25:00,
2013-10-09 06:30:00,45.5,29.4,29.55,North,352,8.0,15.0,53,0.00,,,0.00,WeatherTracker,2013-10-09 13:30:00,
2013-10-09 06:35:00,45.5,29.4,29.55,NNW,346,10.0,14.0,53,0.00,,,0.00,WeatherTracker,2013-10-09 13:35:00,
2013-10-09 06:40:00,45.3,30.1,29.55,NNW,341,4.0,14.0,55,0.00,,,0.00,WeatherTracker,2013-10-09 13:40:00,
2013-10-09 06:45:00,45.0,30.3,29.56,NNW,342,11.0,15.0,56,0.00,,,0.00,WeatherTracker,2013-10-09 13:45:00,
2013-10-09 06:50:00,44.7,30.8,29.57,NNW,343,12.0,17.0,58,0.00,,,0.00,WeatherTracker,2013-10-09 13:50:00,
2013-10-09 06:55:00,44.0,31.8,29.57,North,359,6.0,17.0,62,0.00,,,0.00,WeatherTracker,2013-10-09 13:55:00,
2013-10-09 07:00:00,43.3,32.3,29.57,North,358,2.0,16.0,65,0.00,,,0.00,WeatherTracker,2013-10-09 14:00:00,
2013-10-09 07:05:00,42.8,32.2,29.58,NNE,19,1.0,7.0,66,0.00,,,0.00,WeatherTracker,2013-10-09 14:05:00,
2013-10-09 07:10:00,42.5,32.0,29.57,NNW,347,4.0,4.0,66,0.00,,,0.00,WeatherTracker,2013-10-09 14:10:00,
2013-10-09 07:15:00,42.4,31.9,29.57,NNW,347,7.0,11.0,66,0.00,,,0.00,WeatherTracker,2013-10-09 14:15:00,
2013-10-09 07:20:00,42.2,32.8,29.58,NW,306,3.0,12.0,69,0.00,,,0.00,WeatherTracker,2013-10-09 14:20:00,
2013-10-09 07:25:00,41.7,33.4,29.58,West,280,6.0,12.0,72,0.00,,,0.00,WeatherTracker,2013-10-09 14:25:00,
2013-10-09 07:30:00,41.1,33.5,29.58,West,279,10.0,12.0,74,0.00,,,0.00,WeatherTracker,2013-10-09 14:30:00,
2013-10-09 07:35:00,40.6,33.3,29.58,WNW,291,6.0,12.0,75,0.01,,,0.01,WeatherTracker,2013-10-09 14:35:00,
2013-10-09 07:40:00,40.5,33.5,29.58,West,269,9.0,10.0,76,0.01,,,0.01,WeatherTracker,2013-10-09 14:40:00,
2013-10-09 07:45:00,40.5,33.5,29.58,West,279,3.0,11.0,76,0.01,,,0.01,WeatherTracker,2013-10-09 14:45:00,
2013-10-09 07:50:00,40.3,34.0,29.58,West,279,2.0,11.0,78,0.01,,,0.01,WeatherTracker,2013-10-09 14:50:00,
2013-10-09 07:55:00,40.1,33.8,29.58,West,269,5.0,8.0,78,0.01,,,0.01,WeatherTracker,2013-10-09 14:55:00,
2013-10-09 08:01:00,40.1,33.8,29.58,West,279,4.0,9.0,78,0.01,,,0.01,WeatherTracker,2013-10-09 15:01:00,
2013-10-09 08:06:00,40.2,33.9,29.59,West,271,3.0,9.0,78,0.01,,,0.01,WeatherTracker,2013-10-09 15:06:00,
2013-10-09 08:11:00,40.2,33.9,29.59,West,271,4.0,7.0,78,0.01,,,0.01,WeatherTracker,2013-10-09 15:11:00,
2013-10-09 08:16:00,40.4,33.4,29.59,West,280,4.0,7.0,76,0.01,,,0.01,WeatherTracker,2013-10-09 15:16:00,
2013-10-09 08:21:00,40.6,33.6,29.59,West,279,0.0,6.0,76,0.01,,,0.01,WeatherTracker,2013-10-09 15:21:00,
2013-10-09 08:26:00,40.7,34.4,29.60,North,349,3.0,6.0,78,0.01,,,0.01,WeatherTracker,2013-10-09 15:26:00,
2013-10-09 08:31:00,40.5,34.2,29.60,North,349,1.0,4.0,78,0.01,,,0.01,WeatherTracker,2013-10-09 15:31:00,
2013-10-09 08:36:00,40.5,34.2,29.60,North,356,0.0,4.0,78,0.00,,,0.01,WeatherTracker,2013-10-09 15:36:00,
2013-10-09 08:41:00,40.4,34.4,29.60,North,356,0.0,4.0,79,0.00,,,0.01,WeatherTracker,2013-10-09 15:41:00,
2013-10-09 08:46:00,40.3,34.3,29.60,North,356,0.0,2.0,79,0.01,,,0.02,WeatherTracker,2013-10-09 15:46:00,
2013-10-09 08:51:00,40.2,34.2,29.61,North,354,0.0,3.0,79,0.01,,,0.02,WeatherTracker,2013-10-09 15:51:00,
2013-10-09 08:56:00,40.1,34.1,29.61,North,1,2.0,4.0,79,0.01,,,0.02,WeatherTracker,2013-10-09 15:56:00,
2013-10-09 09:01:00,39.8,33.8,29.61,North,350,3.0,4.0,79,0.02,,,0.03,WeatherTracker,2013-10-09 16:01:00,
2013-10-09 09:06:00,39.1,33.5,29.61,North,350,2.0,5.0,80,0.02,,,0.03,WeatherTracker,2013-10-09 16:06:00,
2013-10-09 09:11:00,38.8,33.5,29.61,North,350,0.0,5.0,81,0.03,,,0.04,WeatherTracker,2013-10-09 16:11:00,
2013-10-09 09:16:00,38.7,33.4,29.61,North,350,0.0,4.0,81,0.04,,,0.05,WeatherTracker,2013-10-09 16:16:00,
2013-10-09 09:21:00,38.8,33.8,29.62,North,350,0.0,0.0,82,0.04,,,0.05,WeatherTracker,2013-10-09 16:21:00,
2013-10-09 09:26:00,38.6,33.9,29.61,North,350,2.0,0.0,83,0.04,,,0.05,WeatherTracker,2013-10-09 16:26:00,
2013-10-09 09:31:00,38.4,34.0,29.62,SW,232,2.0,5.0,84,0.05,,,0.06,WeatherTracker,2013-10-09 16:31:00,
2013-10-09 09:36:00,38.2,34.1,29.62,WSW,239,2.0,5.0,85,0.05,,,0.06,WeatherTracker,2013-10-09 16:36:00,
2013-10-09 09:41:00,38.1,34.0,29.62,WSW,240,0.0,5.0,85,0.06,,,0.07,WeatherTracker,2013-10-09 16:41:00,
2013-10-09 09:46:00,38.2,34.4,29.62,WSW,240,1.0,4.0,86,0.05,,,0.07,WeatherTracker,2013-10-09 16:46:00,
2013-10-09 09:51:00,38.3,34.5,29.62,SW,225,2.0,4.0,86,0.05,,,0.07,WeatherTracker,2013-10-09 16:51:00,
2013-10-09 09:56:00,38.3,34.5,29.62,SW,235,1.0,6.0,86,0.06,,,0.08,WeatherTracker,2013-10-09 16:56:00,
2013-10-09 10:01:00,38.8,35.0,29.62,SW,235,1.0,6.0,86,0.05,,,0.08,WeatherTracker,2013-10-09 17:01:00,
2013-10-09 10:06:00,39.1,35.3,29.62,WSW,253,0.0,5.0,86,0.05,,,0.08,WeatherTracker,2013-10-09 17:06:00,
2013-10-09 10:12:00,39.5,35.4,29.62,West,269,2.0,6.0,85,0.04,,,0.08,WeatherTracker,2013-10-09 17:12:00,
2013-10-09 10:17:00,40.0,35.6,29.62,WNW,283,2.0,6.0,84,0.03,,,0.08,WeatherTracker,2013-10-09 17:17:00,
2013-10-09 10:22:00,40.7,35.6,29.62,West,281,4.0,6.0,82,0.03,,,0.08,WeatherTracker,2013-10-09 17:22:00,
2013-10-09 10:27:00,40.9,34.6,29.63,West,275,3.0,7.0,78,0.03,,,0.08,WeatherTracker,2013-10-09 17:27:00,
2013-10-09 10:32:00,41.1,34.4,29.63,West,277,3.0,7.0,77,0.02,,,0.08,WeatherTracker,2013-10-09 17:32:00,
2013-10-09 10:37:00,41.4,35.1,29.62,NW,313,4.0,6.0,78,0.02,,,0.08,WeatherTracker,2013-10-09 17:37:00,
2013-10-09 10:42:00,41.5,35.2,29.62,WNW,297,4.0,10.0,78,0.01,,,0.08,WeatherTracker,2013-10-09 17:42:00,
2013-10-09 10:47:00,41.5,34.8,29.62,WNW,288,4.0,11.0,77,0.01,,,0.08,WeatherTracker,2013-10-09 17:47:00,
2013-10-09 10:52:00,41.6,35.6,29.62,WNW,284,6.0,11.0,79,0.01,,,0.08,WeatherTracker,2013-10-09 17:52:00,
2013-10-09 10:57:00,41.7,35.7,29.63,West,279,4.0,7.0,79,0.00,,,0.08,WeatherTracker,2013-10-09 17:57:00,
2013-10-09 11:02:00,41.7,35.7,29.63,WNW,287,4.0,7.0,79,0.00,,,0.08,WeatherTracker,2013-10-09 18:02:00,
2013-10-09 11:07:00,41.6,34.9,29.63,WNW,283,2.0,11.0,77,0.00,,,0.08,WeatherTracker,2013-10-09 18:07:00,
2013-10-09 11:12:00,41.6,35.3,29.63,WNW,288,6.0,11.0,78,0.00,,,0.08,WeatherTracker,2013-10-09 18:12:00,
2013-10-09 11:17:00,41.6,35.6,29.63,NW,304,3.0,12.0,79,0.00,,,0.08,WeatherTracker,2013-10-09 18:17:00,
2013-10-09 11:22:00,41.7,35.7,29.63,NW,321,5.0,12.0,79,0.01,,,0.09,WeatherTracker,2013-10-09 18:22:00,
2013-10-09 11:27:00,41.8,35.5,29.64,NW,321,5.0,11.0,78,0.01,,,0.09,WeatherTracker,2013-10-09 18:27:00,
2013-10-09 11:32:00,42.0,36.0,29.64,NNW,331,5.0,11.0,79,0.01,,,0.09,WeatherTracker,2013-10-09 18:32:00,
2013-10-09 11:37:00,42.2,36.5,29.64,NNW,327,9.0,11.0,80,0.01,,,0.09,WeatherTracker,2013-10-09 18:37:00,
2013-10-09 11:42:00,42.2,36.2,29.64,NW,325,5.0,12.0,79,0.01,,,0.09,WeatherTracker,2013-10-09 18:42:00,
2013-10-09 11:47:00,42.1,36.1,29.64,NW,322,7.0,12.0,79,0.01,,,0.09,WeatherTracker,2013-10-09 18:47:00,
2013-10-09 11:52:00,42.2,36.5,29.64,NW,323,7.0,10.0,80,0.01,,,0.09,WeatherTracker,2013-10-09 18:52:00,
2013-10-09 11:57:00,42.2,36.2,29.64,NW,322,6.0,11.0,79,0.01,,,0.09,WeatherTracker,2013-10-09 18:57:00,
2013-10-09 12:02:00,42.2,36.2,29.64,NNW,333,5.0,11.0,79,0.01,,,0.09,WeatherTracker,2013-10-09 19:02:00,
2013-10-09 12:07:00,42.2,35.5,29.65,NNW,344,5.0,13.0,77,0.01,,,0.09,WeatherTracker,2013-10-09 19:07:00,
2013-10-09 12:12:00,42.2,35.2,29.65,NW,319,5.0,14.0,76,0.01,,,0.09,WeatherTracker,2013-10-09 19:12:00,
2013-10-09 12:17:00,42.2,35.2,29.65,NW,315,6.0,14.0,76,0.01,,,0.09,WeatherTracker,2013-10-09 19:17:00,
2013-10-09 12:22:00,42.1,35.4,29.65,NNW,343,5.0,10.0,77,0.00,,,0.09,WeatherTracker,2013-10-09 19:22:00,
2013-10-09 12:27:00,42.0,35.0,29.65,NW,319,6.0,10.0,76,0.00,,,0.09,WeatherTracker,2013-10-09 19:27:00,
2013-10-09 12:32:00,42.0,35.0,29.65,NNW,337,0.0,10.0,76,0.00,,,0.09,WeatherTracker,2013-10-09 19:32:00,
2013-10-09 12:38:00,42.1,35.4,29.65,NNW,337,2.0,9.0,77,0.01,,,0.10,WeatherTracker,2013-10-09 19:38:00,
2013-10-09 12:43:00,42.3,35.6,29.64,NNW,331,2.0,5.0,77,0.01,,,0.10,WeatherTracker,2013-10-09 19:43:00,
2013-10-09 12:48:00,42.4,36.0,29.64,West,280,3.0,5.0,78,0.01,,,0.10,WeatherTracker,2013-10-09 19:48:00,
2013-10-09 12:53:00,42.1,35.7,29.64,SW,216,7.0,7.0,78,0.01,,,0.10,WeatherTracker,2013-10-09 19:53:00,
2013-10-09 12:58:00,41.6,34.9,29.64,SW,234,0.0,7.0,77,0.01,,,0.10,WeatherTracker,2013-10-09 19:58:00,
2013-10-09 13:03:00,41.7,35.7,29.64,SW,235,2.0,7.0,79,0.01,,,0.10,WeatherTracker,2013-10-09 20:03:00,
2013-10-09 13:08:00,41.6,35.6,29.64,West,267,2.0,5.0,79,0.01,,,0.10,WeatherTracker,2013-10-09 20:08:00,
2013-10-09 13:13:00,41.8,35.8,29.64,WNW,285,3.0,5.0,79,0.01,,,0.10,WeatherTracker,2013-10-09 20:13:00,
2013-10-09 13:18:00,41.9,35.5,29.64,West,277,4.0,5.0,78,0.01,,,0.10,WeatherTracker,2013-10-09 20:18:00,
2013-10-09 13:23:00,42.0,35.6,29.64,West,262,2.0,10.0,78,0.01,,,0.10,WeatherTracker,2013-10-09 20:23:00,
2013-10-09 13:28:00,42.2,35.8,29.64,SW,227,2.0,10.0,78,0.01,,,0.10,WeatherTracker,2013-10-09 20:28:00,
2013-10-09 13:33:00,42.5,36.5,29.64,SSW,194,3.0,10.0,79,0.01,,,0.10,WeatherTracker,2013-10-09 20:33:00,
2013-10-09 13:38:00,43.0,36.9,29.64,WNW,282,5.0,10.0,79,0.00,,,0.10,WeatherTracker,2013-10-09 20:38:00,
2013-10-09 13:43:00,43.5,37.1,29.64,SW,230,4.0,8.0,78,0.00,,,0.10,WeatherTracker,2013-10-09 20:43:00,
2013-10-09 13:48:00,43.8,36.7,29.64,WNW,288,5.0,8.0,76,0.00,,,0.10,WeatherTracker,2013-10-09 20:48:00,
2013-10-09 13:53:00,44.3,36.5,29.64,NNW,337,10.0,10.0,74,0.00,,,0.10,WeatherTracker,2013-10-09 20:53:00,
2013-10-09 13:59:00,44.8,36.3,29.63,NW,316,5.0,13.0,72,0.00,,,0.10,WeatherTracker,2013-10-09 20:59:00,
2013-10-09 14:04:00,45.0,36.2,29.64,NNW,335,9.0,14.0,71,0.00,,,0.10,WeatherTracker,2013-10-09 21:04:00,
2013-10-09 14:09:00,45.0,36.2,29.64,NW,323,10.0,14.0,71,0.00,,,0.10,WeatherTracker,2013-10-09 21:09:00,
2013-10-09 14:14:00,45.1,35.9,29.64,NW,315,6.0,13.0,70,0.00,,,0.10,WeatherTracker,2013-10-09 21:14:00,
2013-10-09 14:19:00,45.5,37.0,29.64,NW,326,6.0,13.0,72,0.00,,,0.10,WeatherTracker,2013-10-09 21:19:00,
2013-10-09 14:24:00,45.7,35.8,29.64,NW,325,5.0,10.0,68,0.00,,,0.10,WeatherTracker,2013-10-09 21:24:00,
2013-10-09 14:29:00,45.8,35.8,29.64,NNW,327,6.0,11.0,68,0.00,,,0.10,WeatherTracker,2013-10-09 21:29:00,
2013-10-09 14:34:00,45.9,36.7,29.64,NNW,327,10.0,12.0,70,0.00,,,0.10,WeatherTracker,2013-10-09 21:34:00,
2013-10-09 14:39:00,46.0,36.0,29.64,NNW,333,7.0,12.0,68,0.00,,,0.10,WeatherTracker,2013-10-09 21:39:00,
2013-10-09 14:44:00,46.1,36.1,29.64,NNW,327,8.0,11.0,68,0.00,,,0.10,WeatherTracker,2013-10-09 21:44:00,
2013-10-09 14:49:00,46.3,36.3,29.65,NW,317,6.0,11.0,68,0.00,,,0.10,WeatherTracker,2013-10-09 21:49:00,
2013-10-09 14:54:00,46.5,36.1,29.65,NW,319,8.0,11.0,67,0.00,,,0.10,WeatherTracker,2013-10-09 21:54:00,
2013-10-09 14:59:00,46.6,35.1,29.65,NW,318,5.0,12.0,64,0.00,,,0.10,WeatherTracker,2013-10-09 21:59:00,
2013-10-09 15:04:00,46.8,35.3,29.65,NNW,327,7.0,12.0,64,0.00,,,0.10,WeatherTracker,2013-10-09 22:04:00,
2013-10-09 15:09:00,46.8,35.3,29.65,NW,320,4.0,12.0,64,0.00,,,0.10,WeatherTracker,2013-10-09 22:09:00,
2013-10-09 15:14:00,47.0,35.5,29.65,NW,325,9.0,12.0,64,0.00,,,0.10,WeatherTracker,2013-10-09 22:14:00,
2013-10-09 15:19:00,46.9,35.4,29.65,NW,311,5.0,13.0,64,0.00,,,0.10,WeatherTracker,2013-10-09 22:19:00,
2013-10-09 15:24:00,46.9,35.4,29.65,NNW,327,8.0,13.0,64,0.00,,,0.10,WeatherTracker,2013-10-09 22:24:00,
2013-10-09 15:29:00,46.9,35.8,29.65,NW,317,7.0,13.0,65,0.00,,,0.10,WeatherTracker,2013-10-09 22:29:00,
2013-10-09 15:34:00,46.9,35.8,29.65,NW,304,3.0,11.0,65,0.00,,,0.10,WeatherTracker,2013-10-09 22:34:00,
2013-10-09 15:39:00,46.9,35.4,29.66,NNW,328,7.0,11.0,64,0.00,,,0.10,WeatherTracker,2013-10-09 22:39:00,
2013-10-09 15:44:00,46.7,35.2,29.66,NW,323,8.0,12.0,64,0.00,,,0.10,WeatherTracker,2013-10-09 22:44:00,
2013-10-09 15:49:00,46.5,35.8,29.66,NW,326,12.0,14.0,66,0.00,,,0.10,WeatherTracker,2013-10-09 22:49:00,
2013-10-09 15:55:00,46.4,35.7,29.65,NW,323,10.0,12.0,66,0.00,,,0.10,WeatherTracker,2013-10-09 22:55:00,
2013-10-09 16:00:00,46.6,35.9,29.65,NW,322,7.0,12.0,66,0.00,,,0.10,WeatherTracker,2013-10-09 23:00:00,
2013-10-09 16:05:00,46.7,36.0,29.66,NW,304,6.0,12.0,66,0.00,,,0.10,WeatherTracker,2013-10-09 23:05:00,
2013-10-09 16:10:00,46.8,35.7,29.66,NW,318,2.0,10.0,65,0.00,,,0.10,WeatherTracker,2013-10-09 23:10:00,
2013-10-09 16:15:00,46.8,35.3,29.66,NW,321,4.0,9.0,64,0.00,,,0.10,WeatherTracker,2013-10-09 23:15:00,
2013-10-09 16:20:00,46.8,35.3,29.66,WNW,303,4.0,6.0,64,0.00,,,0.10,WeatherTracker,2013-10-09 23:20:00,
2013-10-09 16:25:00,46.7,35.2,29.66,NW,319,6.0,8.0,64,0.00,,,0.10,WeatherTracker,2013-10-09 23:25:00,
2013-10-09 16:30:00,46.8,34.9,29.66,NNW,340,3.0,8.0,63,0.00,,,0.10,WeatherTracker,2013-10-09 23:30:00,
2013-10-09 16:35:00,46.8,34.9,29.66,North,353,5.0,12.0,63,0.00,,,0.10,WeatherTracker,2013-10-09 23:35:00,
2013-10-09 16:40:00,46.8,34.5,29.66,NNW,347,5.0,13.0,62,0.00,,,0.10,WeatherTracker,2013-10-09 23:40:00,
2013-10-09 16:45:00,46.6,33.9,29.66,NNW,341,5.0,13.0,61,0.00,,,0.10,WeatherTracker,2013-10-09 23:45:00,
2013-10-09 16:50:00,46.5,34.2,29.67,NNW,331,7.0,12.0,62,0.00,,,0.10,WeatherTracker,2013-10-09 23:50:00,
2013-10-09 16:55:00,46.5,34.2,29.67,NNW,344,6.0,12.0,62,0.00,,,0.10,WeatherTracker,2013-10-09 23:55:00,
2013-10-09 17:00:00,46.5,34.2,29.67,NW,320,7.0,13.0,62,0.00,,,0.10,WeatherTracker,2013-10-10 00:00:00,
2013-10-09 17:05:00,46.6,34.7,29.67,NNW,335,4.0,13.0,63,0.00,,,0.10,WeatherTracker,2013-10-10 00:05:00,
2013-10-09 17:10:00,46.7,34.8,29.67,NNW,342,6.0,9.0,63,0.00,,,0.10,WeatherTracker,2013-10-10 00:10:00,
2013-10-09 17:15:00,46.8,34.9,29.68,NNW,327,5.0,11.0,63,0.00,,,0.10,WeatherTracker,2013-10-10 00:15:00,
2013-10-09 17:20:00,46.7,34.8,29.68,NNW,333,7.0,11.0,63,0.00,,,0.10,WeatherTracker,2013-10-10 00:20:00,
2013-10-09 17:25:00,46.7,35.2,29.68,NW,319,9.0,10.0,64,0.00,,,0.10,WeatherTracker,2013-10-10 00:25:00,
2013-10-09 17:30:00,46.7,34.8,29.68,NW,323,4.0,10.0,63,0.00,,,0.10,WeatherTracker,2013-10-10 00:30:00,
2013-10-09 17:35:00,46.6,34.7,29.68,NW,326,7.0,10.0,63,0.00,,,0.10,WeatherTracker,2013-10-10 00:35:00,
2013-10-09 17:40:00,46.5,34.6,29.68,NNW,328,8.0,10.0,63,0.00,,,0.10,WeatherTracker,2013-10-10 00:40:00,
2013-10-09 17:45:00,46.4,34.9,29.69,NNW,333,6.0,10.0,64,0.00,,,0.10,WeatherTracker,2013-10-10 00:45:00,
2013-10-09 17:50:00,46.5,34.6,29.68,NNW,332,10.0,13.0,63,0.00,,,0.10,WeatherTracker,2013-10-10 00:50:00,
2013-10-09 17:56:00,46.5,34.6,29.69,NNW,334,5.0,13.0,63,0.00,,,0.10,WeatherTracker,2013-10-10 00:56:00,
2013-10-09 18:01:00,46.4,34.5,29.69,NW,318,6.0,10.0,63,0.00,,,0.10,WeatherTracker,2013-10-10 01:01:00,
2013-10-09 18:06:00,46.2,34.7,29.69,NW,326,5.0,10.0,64,0.00,,,0.10,WeatherTracker,2013-10-10 01:06:00,
2013-10-09 18:11:00,46.2,34.3,29.69,NNW,329,4.0,9.0,63,0.00,,,0.10,WeatherTracker,2013-10-10 01:11:00,
2013-10-09 18:16:00,46.1,35.0,29.69,NNW,327,2.0,9.0,65,0.00,,,0.10,WeatherTracker,2013-10-10 01:16:00,
2013-10-09 18:21:00,45.9,34.8,29.70,NNW,327,3.0,6.0,65,0.00,,,0.10,WeatherTracker,2013-10-10 01:21:00,
2013-10-09 18:26:00,45.7,35.0,29.70,NW,325,3.0,4.0,66,0.00,,,0.10,WeatherTracker,2013-10-10 01:26:00,
2013-10-09 18:31:00,45.6,34.5,29.70,NW,325,0.0,4.0,65,0.00,,,0.10,WeatherTracker,2013-10-10 01:31:00,
2013-10-09 18:36:00,45.6,34.9,29.70,NW,325,0.0,4.0,66,0.00,,,0.10,WeatherTracker,2013-10-10 01:36:00,
2013-10-09 18:41:00,45.5,34.8,29.70,NW,325,4.0,4.0,66,0.00,,,0.10,WeatherTracker,2013-10-10 01:41:00,
2013-10-09 18:46:00,45.4,34.3,29.70,WNW,302,4.0,6.0,65,0.00,,,0.10,WeatherTracker,2013-10-10 01:46:00,
2013-10-09 18:51:00,45.5,34.8,29.70,WNW,293,2.0,6.0,66,0.00,,,0.10,WeatherTracker,2013-10-10 01:51:00,
2013-10-09 18:56:00,45.6,34.1,29.70,West,275,3.0,7.0,64,0.00,,,0.10,WeatherTracker,2013-10-10 01:56:00,
2013-10-09 19:01:00,45.7,34.6,29.70,West,275,2.0,7.0,65,0.00,,,0.10,WeatherTracker,2013-10-10 02:01:00,
2013-10-09 19:06:00,45.7,34.6,29.70,WSW,258,3.0,7.0,65,0.00,,,0.10,WeatherTracker,2013-10-10 02:06:00,
2013-10-09 19:11:00,45.7,34.6,29.70,West,272,2.0,6.0,65,0.00,,,0.10,WeatherTracker,2013-10-10 02:11:00,
2013-10-09 19:16:00,45.6,34.1,29.70,West,270,4.0,5.0,64,0.00,,,0.10,WeatherTracker,2013-10-10 02:16:00,
2013-10-09 19:21:00,45.6,34.1,29.71,West,265,4.0,5.0,64,0.00,,,0.10,WeatherTracker,2013-10-10 02:21:00,
2013-10-09 19:26:00,45.8,33.5,29.71,West,275,6.0,7.0,62,0.00,,,0.10,WeatherTracker,2013-10-10 02:26:00,
2013-10-09 19:31:00,46.1,34.2,29.71,West,266,4.0,7.0,63,0.00,,,0.10,WeatherTracker,2013-10-10 02:31:00,
2013-10-09 19:36:00,46.2,33.9,29.71,West,272,1.0,7.0,62,0.00,,,0.10,WeatherTracker,2013-10-10 02:36:00,
2013-10-09 19:42:00,46.3,34.0,29.71,West,272,0.0,6.0,62,0.00,,,0.10,WeatherTracker,2013-10-10 02:42:00,
2013-10-09 19:47:00,46.3,33.6,29.71,West,273,0.0,4.0,61,0.00,,,0.10,WeatherTracker,2013-10-10 02:47:00,
2013-10-09 19:52:00,46.3,33.6,29.71,West,273,3.0,4.0,61,0.00,,,0.10,WeatherTracker,2013-10-10 02:52:00,
2013-10-09 19:57:00,46.4,33.3,29.71,West,274,4.0,5.0,60,0.00,,,0.10,WeatherTracker,2013-10-10 02:57:00,
2013-10-09 20:02:00,46.5,33.8,29.71,West,273,0.0,5.0,61,0.00,,,0.10,WeatherTracker,2013-10-10 03:02:00,
2013-10-09 20:07:00,46.4,33.7,29.71,West,272,2.0,4.0,61,0.00,,,0.10,WeatherTracker,2013-10-10 03:07:00,
2013-10-09 20:12:00,46.4,34.1,29.72,West,272,0.0,4.0,62,0.00,,,0.10,WeatherTracker,2013-10-10 03:12:00,
2013-10-09 20:17:00,46.3,33.6,29.72,West,273,0.0,4.0,61,0.00,,,0.10,WeatherTracker,2013-10-10 03:17:00,
2013-10-09 20:22:00,46.1,33.8,29.72,West,273,0.0,3.0,62,0.00,,,0.10,WeatherTracker,2013-10-10 03:22:00,
2013-10-09 20:27:00,46.2,33.5,29.72,West,273,0.0,3.0,61,0.00,,,0.10,WeatherTracker,2013-10-10 03:27:00,
2013-10-09 20:32:00,46.3,34.0,29.72,West,273,0.0,4.0,62,0.00,,,0.10,WeatherTracker,2013-10-10 03:32:00,
2013-10-09 20:37:00,46.3,34.0,29.72,West,273,0.0,4.0,62,0.00,,,0.10,WeatherTracker,2013-10-10 03:37:00,
2013-10-09 20:42:00,46.3,34.0,29.73,West,272,0.0,3.0,62,0.00,,,0.10,WeatherTracker,2013-10-10 03:42:00,
2013-10-09 20:47:00,46.3,33.6,29.73,West,273,0.0,3.0,61,0.00,,,0.10,WeatherTracker,2013-10-10 03:47:00,
2013-10-09 20:52:00,46.4,34.5,29.73,West,273,0.0,2.0,63,0.00,,,0.10,WeatherTracker,2013-10-10 03:52:00,
2013-10-09 20:57:00,46.3,34.4,29.73,West,273,0.0,0.0,63,0.00,,,0.10,WeatherTracker,2013-10-10 03:57:00,
2013-10-09 21:01:00,46.1,33.8,29.74,West,273,3.0,3.0,62,0.00,,,0.10,WeatherTracker,2013-10-10 04:01:00,
2013-10-09 21:02:00,46.2,32.7,29.74,West,273,2.0,2.0,59,0.00,,,0.10,WeatherTracker,2013-10-10 04:02:00,
2013-10-09 21:04:00,46.4,32.9,29.73,West,273,2.0,2.0,59,0.00,,,0.10,WeatherTracker,2013-10-10 04:04:00,
2013-10-09 21:09:00,46.9,33.3,29.74,West,273,2.0,5.0,59,0.00,,,0.10,WeatherTracker,2013-10-10 04:09:00,
2013-10-09 21:14:00,47.1,33.1,29.74,West,275,3.0,5.0,58,0.00,,,0.10,WeatherTracker,2013-10-10 04:14:00,
2013-10-09 21:19:00,47.0,33.4,29.74,West,275,0.0,4.0,59,0.00,,,0.10,WeatherTracker,2013-10-10 04:19:00,
2013-10-09 21:24:00,46.7,34.0,29.74,West,275,0.0,4.0,61,0.00,,,0.10,WeatherTracker,2013-10-10 04:24:00,
2013-10-09 21:29:00,46.3,34.4,29.74,West,275,0.0,3.0,63,0.00,,,0.10,WeatherTracker,2013-10-10 04:29:00,
2013-10-09 21:34:00,45.9,34.4,29.74,West,275,0.0,2.0,64,0.00,,,0.10,WeatherTracker,2013-10-10 04:34:00,
2013-10-09 21:39:00,45.6,33.7,29.74,West,275,0.0,0.0,63,0.00,,,0.10,WeatherTracker,2013-10-10 04:39:00,
2013-10-09 21:44:00,45.5,34.4,29.74,West,275,0.0,0.0,65,0.00,,,0.10,WeatherTracker,2013-10-10 04:44:00,
2013-10-09 21:49:00,45.4,33.9,29.75,West,275,0.0,0.0,64,0.00,,,0.10,WeatherTracker,2013-10-10 04:49:00,
2013-10-09 21:54:00,45.6,34.1,29.74,West,275,0.0,0.0,64,0.00,,,0.10,WeatherTracker,2013-10-10 04:54:00,
2013-10-09 21:59:00,45.8,34.7,29.75,West,275,0.0,3.0,65,0.00,,,0.10,WeatherTracker,2013-10-10 04:59:00,
2013-10-09 22:04:00,45.6,34.9,29.75,West,275,0.0,3.0,66,0.00,,,0.10,WeatherTracker,2013-10-10 05:04:00,
2013-10-09 22:09:00,45.5,34.0,29.75,West,275,0.0,0.0,64,0.00,,,0.10,WeatherTracker,2013-10-10 05:09:00,
2013-10-09 22:14:00,45.5,34.8,29.75,West,275,0.0,3.0,66,0.00,,,0.10,WeatherTracker,2013-10-10 05:14:00,
2013-10-09 22:19:00,45.2,34.9,29.76,West,275,0.0,3.0,67,0.00,,,0.10,WeatherTracker,2013-10-10 05:19:00,
2013-10-09 22:25:00,45.1,34.4,29.76,West,275,0.0,1.0,66,0.00,,,0.10,WeatherTracker,2013-10-10 05:25:00,
2013-10-09 22:30:00,45.0,33.6,29.76,West,275,0.0,0.0,64,0.00,,,0.10,WeatherTracker,2013-10-10 05:30:00,
2013-10-09 22:35:00,45.4,33.2,29.77,West,275,0.0,1.0,62,0.00,,,0.10,WeatherTracker,2013-10-10 05:35:00,
2013-10-09 22:40:00,46.2,33.1,29.77,NW,304,0.0,4.0,60,0.00,,,0.10,WeatherTracker,2013-10-10 05:40:00,
2013-10-09 22:45:00,46.6,33.9,29.77,NW,304,0.0,4.0,61,0.00,,,0.10,WeatherTracker,2013-10-10 05:45:00,
2013-10-09 22:50:00,46.5,33.8,29.77,NW,306,3.0,3.0,61,0.00,,,0.10,WeatherTracker,2013-10-10 05:50:00,
2013-10-09 22:55:00,46.4,33.3,29.77,NW,306,1.0,3.0,60,0.00,,,0.10,WeatherTracker,2013-10-10 05:55:00,
2013-10-09 23:00:00,46.3,33.6,29.77,NW,306,0.0,3.0,61,0.00,,,0.10,WeatherTracker,2013-10-10 06:00:00,
2013-10-09 23:05:00,46.2,33.1,29.77,NW,306,0.0,2.0,60,0.00,,,0.10,WeatherTracker,2013-10-10 06:05:00,
2013-10-09 23:10:00,46.1,33.0,29.77,NW,306,0.0,0.0,60,0.00,,,0.10,WeatherTracker,2013-10-10 06:10:00,
2013-10-09 23:15:00,45.9,32.4,29.77,NW,306,0.0,0.0,59,0.00,,,0.10,WeatherTracker,2013-10-10 06:15:00,
2013-10-09 23:20:00,45.6,32.9,29.77,NW,306,0.0,0.0,61,0.00,,,0.10,WeatherTracker,2013-10-10 06:20:00,
2013-10-09 23:25:00,45.4,32.7,29.77,NNW,339,3.0,3.0,61,0.00,,,0.10,WeatherTracker,2013-10-10 06:25:00,
2013-10-09 23:30:00,45.6,32.5,29.78,NNW,338,4.0,5.0,60,0.00,,,0.10,WeatherTracker,2013-10-10 06:30:00,
2013-10-09 23:35:00,45.7,32.2,29.78,NNW,339,0.0,5.0,59,0.00,,,0.10,WeatherTracker,2013-10-10 06:35:00,
2013-10-09 23:40:00,45.8,32.7,29.78,NNW,338,1.0,4.0,60,0.00,,,0.10,WeatherTracker,2013-10-10 06:40:00,
2013-10-09 23:45:00,45.6,32.5,29.78,NNW,338,2.0,3.0,60,0.00,,,0.10,WeatherTracker,2013-10-10 06:45:00,
2013-10-09 23:50:00,44.9,32.7,29.78,West,263,3.0,6.0,62,0.00,,,0.10,WeatherTracker,2013-10-10 06:50:00,
2013-10-09 23:55:00,44.4,33.0,29.78,WNW,284,0.0,6.0,64,0.00,,,0.10,WeatherTracker,2013-10-10 06:55:00,